Main page
METAR-TAF:

METAR-TAF

Airports :

Bahrain International Airport

Bahrain, Bahrain

latitude: 26-16N, longitude: 050-39E, elevation: 2 m

Current weather observation

The report was made 16 minutes ago, at 00:00 UTC
Wind 20 kt from the West/Northwest
Temperature 32°C
Humidity 43%
Pressure 998 hPa
Visibility: 4000 m
Clear sky
widespread dust

METAR: OBBI 170000Z 30020KT 4000 DU SKC 32/18 Q0998 NOSIG

Time: 03:16 (00:16 UTC)

Forecast

The report was made 1 hour and 16 minutes ago, at 23:00 UTC
Forecast valid from 17 at 00 UTC to 18 at 06 UTC
Wind 22 kt from the North/Northwest
Visibility: 8000 m
Temporary
from 17 at 00 UTC to 17 at 03 UTC
Visibility: 3000 m
widespread dust
Temporary
from 17 at 14 UTC to 18 at 00 UTC
Visibility: 5000 m
widespread dust

TAF: OBBI 162300Z 1700/1806 33022KT 8000 NSC TEMPO 1700/1703 3000 DU TEMPO 1714/1800 5000 DU

Weather observations and forecasts of more than 4000 airports (METAR and TAF reports).

The available stations are represented by yellow and red dots on the map.

Hover mouse over dot to see the name of the station.

Then click to see weather observations and forecasts.

To change the map : click on the green buttons with a black cross to zoom in, on the green button with a dash to zoom out, or on the green arrows for adjacent maps.


METAR-TAF: